Time;durP1;ratioP1;P1;durP2;ratioP2;P2;SDS_P1;SDS_P2;PMS_P1;PMS_P2;Temp;Humidity;BMP_temperature;BMP_pressure;BME280_temperature;BME280_humidity;BME280_pressure;Samples;Min_cycle;Max_cycle;Signal;HPM_P1;HPM_P2
2023/01/06 00:02:24;;;;;;;1.50;1.50;;;;;;;24.07;39.26;99956.52;1878206;76;28226;-48
2023/01/06 00:05:12;;;;;;;1.70;1.60;;;;;;;24.05;39.27;99955.89;1873062;76;30130;-46
2023/01/06 00:08:01;;;;;;;1.60;1.50;;;;;;;24.05;39.28;99951.77;1878217;76;28130;-48
2023/01/06 00:10:49;;;;;;;1.60;1.50;;;;;;;24.03;39.35;99953.39;1864093;76;28163;-47
2023/01/06 00:13:38;;;;;;;1.82;1.60;;;;;;;24.04;39.25;99945.97;1877630;76;28211;-46
2023/01/06 00:16:26;;;;;;;1.65;1.55;;;;;;;24.05;39.27;99950.41;1874493;76;28649;-47
2023/01/06 00:19:14;;;;;;;1.52;1.50;;;;;;;24.07;39.29;99955.16;1873580;76;28610;-47
2023/01/06 00:22:04;;;;;;;1.75;1.65;;;;;;;24.06;39.30;99950.75;1863083;76;28202;-47
2023/01/06 00:24:53;;;;;;;1.52;1.52;;;;;;;24.07;39.24;99950.19;1877232;74;28258;-46
2023/01/06 00:27:41;;;;;;;1.70;1.60;;;;;;;24.04;39.30;99947.34;1856316;74;28141;-45
2023/01/06 00:30:29;;;;;;;1.80;1.42;;;;;;;24.05;39.28;99947.66;1887848;74;28228;-46
2023/01/06 00:33:18;;;;;;;1.47;1.40;;;;;;;24.03;39.31;99949.27;1877889;76;28138;-47
2023/01/06 00:36:08;;;;;;;2.17;1.60;;;;;;;24.04;39.24;99947.34;1857868;76;28149;-45
2023/01/06 00:38:57;;;;;;;1.35;1.30;;;;;;;23.96;39.27;99937.55;1876096;75;28404;-47
2023/01/06 00:42:04;;;;;;;1.67;1.57;;;;;;;24.05;39.29;99947.13;1878245;75;28312;-48
2023/01/06 00:44:53;;;;;;;2.00;1.50;;;;;;;24.04;39.32;99940.48;1876121;75;28238;-48
2023/01/06 00:47:42;;;;;;;1.80;1.70;;;;;;;24.01;39.31;99946.45;1879156;74;28171;-45
2023/01/06 00:50:30;;;;;;;1.57;1.37;;;;;;;24.01;39.34;99941.78;1866702;76;28226;-45
2023/01/06 00:53:19;;;;;;;1.70;1.60;;;;;;;24.00;39.36;99944.77;1874564;76;28165;-48
2023/01/06 00:56:07;;;;;;;1.70;1.60;;;;;;;24.01;39.37;99938.22;1878110;76;28429;-47
2023/01/06 00:58:56;;;;;;;1.60;1.50;;;;;;;24.00;39.36;99933.27;1870662;75;28106;-48
2023/01/06 01:01:46;;;;;;;1.72;1.62;;;;;;;24.02;39.30;99932.49;1869927;76;28298;-46
2023/01/06 01:04:35;;;;;;;1.60;1.50;;;;;;;24.03;39.26;99933.34;1878744;74;28172;-48
2023/01/06 01:07:24;;;;;;;1.80;1.70;;;;;;;24.03;39.32;99930.06;1868187;75;28568;-46
2023/01/06 01:10:13;;;;;;;1.70;1.60;;;;;;;24.05;39.32;99935.31;1867867;76;28242;-47
2023/01/06 01:13:01;;;;;;;1.37;1.37;;;;;;;23.93;39.45;99942.13;1883030;74;28008;-47
2023/01/06 01:15:50;;;;;;;1.67;1.57;;;;;;;23.95;39.55;99945.47;1878637;75;28215;-45
2023/01/06 01:18:39;;;;;;;1.62;1.52;;;;;;;23.95;39.50;99941.88;1866949;74;28216;-46
2023/01/06 01:21:27;;;;;;;1.70;1.60;;;;;;;23.95;39.50;99941.35;1851719;76;28160;-45
2023/01/06 01:24:17;;;;;;;1.60;1.50;;;;;;;23.94;39.56;99946.52;1862845;74;28239;-47
2023/01/06 01:27:06;;;;;;;1.70;1.60;;;;;;;23.93;39.50;99945.39;1870252;75;28219;-49
2023/01/06 01:29:54;;;;;;;1.50;1.40;;;;;;;23.94;39.55;99950.64;1863715;76;28638;-45
2023/01/06 01:32:43;;;;;;;1.62;1.52;;;;;;;23.94;39.53;99950.64;1862122;74;28299;-47
2023/01/06 01:35:31;;;;;;;1.57;1.52;;;;;;;23.94;39.52;99946.52;1874721;75;28239;-47
2023/01/06 01:38:20;;;;;;;1.30;1.30;;;;;;;23.92;39.53;99947.86;1880499;74;28083;-45
2023/01/06 01:41:14;;;;;;;2.42;1.60;;;;;;;23.92;39.59;99956.09;1880810;74;28145;-44
2023/01/06 01:44:05;;;;;;;1.55;1.45;;;;;;;23.94;39.54;99956.13;1852534;74;28170;-46
2023/01/06 01:46:54;;;;;;;1.60;1.50;;;;;;;23.92;39.51;99953.34;1860314;75;28125;-45
2023/01/06 01:49:45;;;;;;;2.10;1.77;;;;;;;23.92;39.59;99948.67;1877783;74;28100;-47
2023/01/06 01:52:35;;;;;;;1.72;1.62;;;;;;;23.92;39.56;99949.23;1877568;76;28199;-50
2023/01/06 01:55:26;;;;;;;1.60;1.50;;;;;;;23.88;39.59;99948.00;1870417;76;28180;-49
2023/01/06 01:58:20;;;;;;;1.65;1.55;;;;;;;23.90;39.58;99948.59;1874369;76;28157;-45
2023/01/06 02:01:10;;;;;;;1.57;1.52;;;;;;;23.87;39.56;99947.71;1864667;76;28187;-45
2023/01/06 02:04:01;;;;;;;1.52;1.42;;;;;;;23.88;39.58;99949.37;1868235;74;28124;-45
2023/01/06 02:06:52;;;;;;;1.40;1.30;;;;;;;23.90;39.60;99949.97;1859387;76;28226;-48
2023/01/06 02:09:46;;;;;;;1.70;1.60;;;;;;;23.86;39.60;99946.87;1874454;76;28138;-45
2023/01/06 02:12:35;;;;;;;1.30;1.30;;;;;;;23.90;39.59;99940.36;1877889;76;28253;-48
2023/01/06 02:15:31;;;;;;;1.55;1.45;;;;;;;23.87;39.63;99939.48;1871352;75;28263;-44
2023/01/06 02:18:35;;;;;;;1.90;1.50;;;;;;;23.89;39.60;99944.20;1877953;76;28194;-46
2023/01/06 02:21:34;;;;;;;1.40;1.40;;;;;;;23.89;39.57;99944.20;1872476;76;28272;-44
2023/01/06 02:24:26;;;;;;;1.50;1.40;;;;;;;23.87;39.61;99949.09;1878110;76;28100;-46
2023/01/06 02:27:48;;;;;;;1.40;1.30;;;;;;;23.87;39.66;99950.45;1867392;76;28171;-48
2023/01/06 02:31:06;;;;;;;1.25;1.25;;;;;;;23.87;39.61;99944.97;1872749;76;28240;-45
2023/01/06 02:34:15;;;;;;;1.50;1.40;;;;;;;23.84;39.67;99946.27;1891493;74;28225;-46
2023/01/06 02:37:21;;;;;;;1.62;1.47;;;;;;;23.84;39.70;99946.27;1871973;76;28171;-46
2023/01/06 02:40:21;;;;;;;1.50;1.40;;;;;;;23.86;39.70;99947.39;1862307;76;28131;-46
2023/01/06 02:43:16;;;;;;;1.20;1.20;;;;;;;23.88;39.68;99941.13;1876988;76;28110;-47
2023/01/06 02:46:11;;;;;;;1.50;1.40;;;;;;;23.86;39.70;99942.75;1878059;76;28219;-48
2023/01/06 02:49:22;;;;;;;2.00;1.50;;;;;;;23.86;39.69;99940.01;1864476;74;28194;-45
2023/01/06 02:52:26;;;;;;;1.50;1.40;;;;;;;23.86;39.67;99935.89;1877953;76;28128;-45
2023/01/06 02:55:30;;;;;;;1.70;1.60;;;;;;;23.87;39.72;99939.48;1868336;76;28184;-46
2023/01/06 02:58:33;;;;;;;2.50;1.40;;;;;;;23.85;39.71;99936.95;1867075;75;28121;-45
2023/01/06 03:01:29;;;;;;;1.70;1.60;;;;;;;23.86;39.62;99932.30;1851985;76;28268;-44
2023/01/06 03:04:21;;;;;;;1.47;1.40;;;;;;;23.88;39.66;99931.53;1885277;74;28284;-45
2023/01/06 03:07:11;;;;;;;1.60;1.50;;;;;;;23.86;39.66;99933.67;1879114;76;28266;-44
2023/01/06 03:10:01;;;;;;;1.35;1.35;;;;;;;23.91;39.69;99933.82;1877941;74;28100;-46
2023/01/06 03:12:58;;;;;;;1.30;1.30;;;;;;;23.92;39.63;99933.58;1878139;74;28242;-45
2023/01/06 03:15:48;;;;;;;1.55;1.45;;;;;;;23.97;39.57;99932.35;1850255;76;28173;-47
2023/01/06 03:18:38;;;;;;;1.30;1.30;;;;;;;23.98;39.58;99929.08;1874902;76;28145;-45
2023/01/06 03:21:30;;;;;;;2.47;1.63;;;;;;;23.98;39.50;99927.17;1877899;76;28193;-44
2023/01/06 03:24:18;;;;;;;1.30;1.30;;;;;;;24.01;39.49;99929.99;1877715;76;28266;-45
2023/01/06 03:27:08;;;;;;;1.50;1.40;;;;;;;24.00;39.54;99931.89;1861282;76;28107;-48
2023/01/06 03:29:58;;;;;;;1.27;1.27;;;;;;;24.03;39.44;99930.06;1860168;74;28121;-45
2023/01/06 03:32:58;;;;;;;1.42;1.32;;;;;;;24.04;39.43;99928.98;1877746;76;28133;-49
2023/01/06 03:35:59;;;;;;;1.60;1.50;;;;;;;24.03;39.47;99934.70;1877988;76;28148;-46
2023/01/06 03:39:03;;;;;;;1.57;1.45;;;;;;;24.02;39.46;99930.28;1849556;76;28247;-46
2023/01/06 03:45:45;;;;;;;1.30;1.30;;;;;;;24.03;39.49;99929.22;1866018;76;28141;-47
2023/01/06 03:49:06;;;;;;;1.52;1.42;;;;;;;23.99;39.51;99926.65;1865203;76;28114;-45
2023/01/06 03:52:14;;;;;;;1.42;1.32;;;;;;;23.98;39.56;99929.92;1843378;76;28593;-45
2023/01/06 03:55:17;;;;;;;1.40;1.30;;;;;;;24.00;39.59;99928.30;1862985;76;28125;-46
2023/01/06 03:58:08;;;;;;;1.55;1.45;;;;;;;24.01;39.59;99936.30;1854466;76;28262;-46
2023/01/06 04:00:58;;;;;;;3.60;1.40;;;;;;;24.03;39.50;99939.67;1859100;75;28191;-45
2023/01/06 04:03:48;;;;;;;1.37;1.35;;;;;;;24.10;39.48;99945.09;1877684;75;28223;-45
2023/01/06 04:06:37;;;;;;;1.40;1.30;;;;;;;24.09;39.46;99942.03;1877925;76;28145;-46
2023/01/06 04:09:26;;;;;;;1.55;1.30;;;;;;;24.09;39.44;99939.28;1862674;76;32216;-47
2023/01/06 04:15:24;;;;;;;1.60;1.50;;;;;;;24.17;39.43;99932.63;1872811;76;31988;-45
2023/01/06 04:18:14;;;;;;;1.40;1.30;;;;;;;24.13;39.37;99930.91;1863189;76;37383;-46
2023/01/06 04:21:04;;;;;;;1.40;1.30;;;;;;;24.17;39.37;99938.13;1877733;76;28189;-46
2023/01/06 04:23:52;;;;;;;1.53;1.43;;;;;;;24.16;39.42;99933.69;1863602;74;28202;-45
2023/01/06 04:26:41;;;;;;;1.55;1.45;;;;;;;24.20;39.36;99938.47;1876413;76;28077;-47
2023/01/06 04:29:30;;;;;;;1.35;1.30;;;;;;;24.23;39.29;99940.76;1877770;76;28172;-45
2023/01/06 04:32:19;;;;;;;1.40;1.30;;;;;;;24.21;39.28;99940.69;1865898;76;28169;-48
2023/01/06 04:35:09;;;;;;;1.30;1.30;;;;;;;24.24;39.27;99948.47;1876191;76;28122;-46
2023/01/06 04:38:02;;;;;;;1.40;1.30;;;;;;;24.24;39.29;99938.86;1877831;76;28169;-46
2023/01/06 04:40:50;;;;;;;1.50;1.40;;;;;;;24.21;39.22;99933.83;1873730;76;28161;-45
2023/01/06 04:43:39;;;;;;;1.50;1.40;;;;;;;24.29;39.24;99951.35;1873684;74;28023;-47
2023/01/06 04:46:27;;;;;;;1.67;1.57;;;;;;;24.28;39.14;99954.63;1876093;75;28134;-44
2023/01/06 04:49:15;;;;;;;1.50;1.40;;;;;;;24.28;39.22;99960.11;1865365;76;28200;-47
2023/01/06 04:52:05;;;;;;;1.53;1.43;;;;;;;24.31;39.17;99960.19;1877954;76;28212;-44
2023/01/06 04:54:54;;;;;;;2.05;1.40;;;;;;;24.32;39.18;99961.88;1865412;76;28250;-46
2023/01/06 04:57:42;;;;;;;1.30;1.30;;;;;;;24.35;39.09;99966.34;1867081;76;28155;-44
2023/01/06 05:00:30;;;;;;;1.40;1.30;;;;;;;24.38;39.06;99969.16;1876799;76;28148;-46
2023/01/06 05:03:19;;;;;;;1.32;1.22;;;;;;;24.43;39.05;99963.28;1877825;76;28162;-47
2023/01/06 05:06:10;;;;;;;1.40;1.30;;;;;;;24.46;38.98;99964.69;1863530;76;28082;-44
2023/01/06 05:08:58;;;;;;;1.53;1.43;;;;;;;24.42;38.98;99961.59;1883767;74;28180;-45
2023/01/06 05:11:47;;;;;;;1.40;1.40;;;;;;;24.45;38.98;99964.41;1877608;76;28140;-46
2023/01/06 05:14:35;;;;;;;1.20;1.20;;;;;;;24.43;38.96;99963.28;1862246;76;28333;-46
2023/01/06 05:17:23;;;;;;;1.47;1.40;;;;;;;24.43;38.98;99959.69;1877938;76;28090;-46
2023/01/06 05:20:12;;;;;;;1.35;1.27;;;;;;;24.47;38.95;99967.22;1877429;76;28158;-48
2023/01/06 05:23:00;;;;;;;1.42;1.40;;;;;;;24.52;38.93;99965.98;1872533;76;28340;-45
2023/01/06 05:25:51;;;;;;;1.40;1.30;;;;;;;24.52;38.98;99966.50;1864654;75;28101;-49
2023/01/06 05:28:39;;;;;;;1.60;1.50;;;;;;;24.52;38.94;99965.98;1853128;74;28162;-47
2023/01/06 05:31:28;;;;;;;1.55;1.45;;;;;;;24.56;38.89;99970.45;1870545;76;28104;-51
2023/01/06 05:34:16;;;;;;;1.80;1.70;;;;;;;24.55;38.53;99971.53;1863409;76;28250;-45
2023/01/06 05:37:04;;;;;;;1.72;1.62;;;;;;;24.55;38.45;99970.16;1877072;74;28561;-50
2023/01/06 05:39:53;;;;;;;1.70;1.60;;;;;;;24.56;38.20;99973.19;1866777;76;28174;-46
2023/01/06 05:42:41;;;;;;;1.67;1.57;;;;;;;24.52;38.06;99970.09;1875617;76;28166;-50
2023/01/06 05:45:29;;;;;;;1.87;1.77;;;;;;;24.49;37.91;99965.06;1864387;74;28913;-48
2023/01/06 05:48:18;;;;;;;1.70;1.60;;;;;;;24.58;37.80;99972.41;1864991;75;28234;-47
2023/01/06 05:51:09;;;;;;;2.00;1.70;;;;;;;24.57;37.65;99978.47;1858949;75;28156;-48
2023/01/06 05:53:57;;;;;;;1.67;1.60;;;;;;;24.56;37.54;99981.44;1874752;74;28284;-46
2023/01/06 05:56:45;;;;;;;1.60;1.50;;;;;;;24.54;37.54;99984.42;1877389;75;28154;-49
2023/01/06 05:59:34;;;;;;;1.72;1.62;;;;;;;24.54;37.46;99983.05;1865387;75;28247;-48
2023/01/06 06:02:22;;;;;;;1.85;1.75;;;;;;;24.52;37.33;99989.33;1851758;76;28327;-50
2023/01/06 06:05:11;;;;;;;2.53;1.90;;;;;;;24.52;37.32;99987.95;1872659;76;28185;-45
2023/01/06 06:07:59;;;;;;;2.98;2.12;;;;;;;24.55;36.76;99994.33;1877489;76;28228;-47
2023/01/06 06:10:48;;;;;;;3.60;1.90;;;;;;;24.52;36.79;99989.33;1877820;75;28118;-46
2023/01/06 06:13:37;;;;;;;1.85;1.75;;;;;;;24.52;36.66;99992.59;1867435;75;28262;-45
2023/01/06 06:16:27;;;;;;;1.80;1.70;;;;;;;24.55;36.96;99992.95;1871148;76;28209;-44
2023/01/06 06:19:16;;;;;;;1.70;1.60;;;;;;;24.54;36.93;99996.78;1858003;76;28249;-46
2023/01/06 06:22:04;;;;;;;1.60;1.50;;;;;;;24.53;37.06;99999.22;1859915;76;28157;-49
2023/01/06 06:24:52;;;;;;;3.10;1.70;;;;;;;24.53;37.14;100003.87;1877483;74;28162;-48
2023/01/06 06:27:40;;;;;;;1.50;1.40;;;;;;;24.54;37.17;100003.66;1870124;76;28278;-46
2023/01/06 06:30:29;;;;;;;1.72;1.57;;;;;;;24.48;37.17;100001.83;1862861;76;28078;-46
2023/01/06 06:33:17;;;;;;;1.75;1.55;;;;;;;24.50;37.29;99998.34;1876748;75;28126;-44
2023/01/06 06:36:14;;;;;;;1.75;1.65;;;;;;;24.53;37.28;100001.96;1861381;76;28236;-47
2023/01/06 06:39:03;;;;;;;1.70;1.60;;;;;;;24.48;37.24;100004.57;1864552;76;28337;-44
2023/01/06 06:41:51;;;;;;;1.70;1.60;;;;;;;24.47;37.37;100002.92;1859625;76;28389;-45
2023/01/06 06:44:40;;;;;;;1.90;1.70;;;;;;;24.49;37.46;100018.62;1872618;74;28230;-43
2023/01/06 06:47:28;;;;;;;1.67;1.50;;;;;;;24.51;37.47;100012.35;1875025;76;28189;-44
2023/01/06 06:50:17;;;;;;;1.45;1.40;;;;;;;24.45;37.53;100005.06;1877920;76;28244;-42
2023/01/06 06:53:06;;;;;;;1.62;1.52;;;;;;;24.49;37.53;100002.67;1868686;74;28074;-42
2023/01/06 06:55:55;;;;;;;1.55;1.45;;;;;;;24.49;37.53;100009.01;1851509;76;28189;-41
2023/01/06 06:58:44;;;;;;;2.12;1.50;;;;;;;24.50;37.55;100012.59;1862365;76;28126;-42
2023/01/06 07:01:32;;;;;;;1.50;1.40;;;;;;;24.46;37.68;100011.37;1857322;76;28163;-42
2023/01/06 07:04:21;;;;;;;1.70;1.60;;;;;;;24.47;37.75;100012.53;1870280;74;28189;-42
2023/01/06 07:07:09;;;;;;;1.67;1.57;;;;;;;24.52;37.77;100013.20;1856243;77;28169;-42
2023/01/06 07:09:57;;;;;;;1.70;1.60;;;;;;;24.52;37.82;100012.67;1856624;75;28201;-41
2023/01/06 07:12:45;;;;;;;1.77;1.67;;;;;;;24.52;37.85;100018.16;1838071;77;28258;-41
2023/01/06 07:15:34;;;;;;;1.45;1.42;;;;;;;24.47;37.90;100019.92;1856740;77;32071;-37
2023/01/06 07:18:23;;;;;;;1.37;1.30;;;;;;;24.47;38.07;100022.67;1853299;77;28552;-41
2023/01/06 07:21:11;;;;;;;4.12;1.62;;;;;;;24.46;38.25;100022.36;1843710;76;28216;-41
2023/01/06 07:24:00;;;;;;;1.70;1.40;;;;;;;24.45;38.46;100021.55;1858512;75;38492;-41
2023/01/06 07:26:48;;;;;;;1.60;1.50;;;;;;;24.44;38.62;100022.60;1852354;76;28155;-42
2023/01/06 07:29:36;;;;;;;1.55;1.40;;;;;;;24.47;38.71;100024.89;1855406;76;28203;-43
2023/01/06 07:32:25;;;;;;;2.60;1.60;;;;;;;24.47;38.72;100029.01;1845842;77;28122;-43
2023/01/06 07:35:13;;;;;;;1.55;1.30;;;;;;;24.49;38.82;100030.98;1841766;77;28195;-43
2023/01/06 07:38:09;;;;;;;1.32;1.30;;;;;;;24.51;38.83;100032.95;1864250;75;28021;-44
2023/01/06 07:41:01;;;;;;;1.60;1.50;;;;;;;24.54;38.79;100036.61;1851136;75;28393;-42
2023/01/06 07:43:49;;;;;;;1.40;1.30;;;;;;;24.50;38.93;100042.81;1867995;76;28213;-42
2023/01/06 07:46:37;;;;;;;1.40;1.30;;;;;;;24.51;39.03;100048.06;1840954;76;28254;-43
2023/01/06 07:49:26;;;;;;;1.40;1.30;;;;;;;24.49;39.12;100047.45;1851083;75;28091;-44
2023/01/06 07:52:14;;;;;;;1.85;1.60;;;;;;;24.45;39.29;100044.04;1868304;76;38465;-43
2023/01/06 07:55:03;;;;;;;1.17;1.17;;;;;;;24.47;39.38;100046.02;1847803;76;28257;-42
2023/01/06 07:57:52;;;;;;;1.50;1.40;;;;;;;24.48;39.39;100046.33;1844773;75;28507;-44
2023/01/06 08:00:40;;;;;;;1.43;1.33;;;;;;;24.51;39.40;100049.43;1849333;77;28274;-43
2023/01/06 08:03:29;;;;;;;1.40;1.30;;;;;;;24.57;39.35;100054.54;1856209;76;28166;-43
2023/01/06 08:06:17;;;;;;;1.25;1.25;;;;;;;24.58;39.28;100054.30;1840612;77;28173;-43
2023/01/06 08:09:05;;;;;;;1.67;1.50;;;;;;;24.61;39.27;100050.24;1852822;75;28277;-45
2023/01/06 08:11:53;;;;;;;2.22;1.62;;;;;;;24.61;39.23;100053.83;1838151;77;28292;-44
2023/01/06 08:14:42;;;;;;;1.40;1.30;;;;;;;24.62;39.21;100050.55;1868253;76;28312;-43
2023/01/06 08:17:30;;;;;;;1.40;1.30;;;;;;;24.62;39.21;100054.67;1855187;76;38422;-43
2023/01/06 08:20:19;;;;;;;1.45;1.37;;;;;;;24.62;39.19;100051.37;1849020;76;28288;-44
2023/01/06 08:23:07;;;;;;;1.57;1.42;;;;;;;24.63;39.22;100050.31;1856049;75;28095;-42
2023/01/06 08:26:04;;;;;;;3.30;1.40;;;;;;;24.63;39.26;100053.59;1845000;77;28173;-43
2023/01/06 08:28:53;;;;;;;1.30;1.30;;;;;;;24.65;39.20;100048.16;1847836;74;28214;-43
2023/01/06 08:31:42;;;;;;;1.20;1.20;;;;;;;24.61;39.22;100042.84;1842189;76;28154;-42
2023/01/06 08:34:30;;;;;;;1.47;1.37;;;;;;;24.63;39.20;100046.19;1856016;76;28266;-45
2023/01/06 08:37:18;;;;;;;1.62;1.30;;;;;;;24.62;39.15;100039.00;1868575;76;28224;-42
2023/01/06 08:40:08;;;;;;;2.65;1.27;;;;;;;24.63;39.20;100042.59;1845171;76;28135;-44
2023/01/06 08:42:56;;;;;;;1.40;1.30;;;;;;;24.64;39.18;100043.73;1844327;76;28143;-45
2023/01/06 08:45:44;;;;;;;1.32;1.22;;;;;;;24.65;39.14;100040.45;1846041;76;28085;-45
2023/01/06 08:48:34;;;;;;;2.97;1.30;;;;;;;24.66;39.11;100036.11;1857237;76;28255;-45
2023/01/06 08:51:23;;;;;;;1.27;1.27;;;;;;;24.65;39.08;100039.08;1854861;77;28176;-45
2023/01/06 08:54:13;;;;;;;1.20;1.10;;;;;;;24.65;39.09;100037.70;1868964;74;38889;-45
2023/01/06 08:57:03;;;;;;;1.40;1.30;;;;;;;24.63;39.08;100042.59;1844444;77;28255;-45
2023/01/06 08:59:51;;;;;;;3.12;1.55;;;;;;;24.66;39.10;100039.39;1869754;74;28114;-43
2023/01/06 09:02:39;;;;;;;1.72;1.10;;;;;;;24.68;39.04;100042.73;1879538;75;28207;-45
2023/01/06 09:05:28;;;;;;;1.40;1.30;;;;;;;24.67;39.06;100039.14;1867318;75;28154;-43
2023/01/06 09:08:16;;;;;;;3.40;1.30;;;;;;;24.68;39.00;100035.34;1889002;74;28015;-43
2023/01/06 09:11:07;;;;;;;1.15;1.15;;;;;;;24.71;38.96;100040.34;1883107;75;28143;-43
2023/01/06 09:13:56;;;;;;;1.30;1.10;;;;;;;24.68;39.01;100046.33;1880169;74;28083;-44
2023/01/06 09:16:44;;;;;;;1.50;1.40;;;;;;;24.67;38.98;100041.89;1882635;75;28163;-43
2023/01/06 09:19:32;;;;;;;1.40;1.30;;;;;;;24.69;38.98;100047.17;1873034;75;28212;-44
2023/01/06 09:22:21;;;;;;;0.95;0.95;;;;;;;24.69;38.98;100054.85;1869541;75;28160;-43
2023/01/06 09:25:09;;;;;;;1.50;1.40;;;;;;;24.71;38.97;100049.95;1879497;75;28603;-44
2023/01/06 09:27:58;;;;;;;3.00;1.20;;;;;;;24.72;38.93;100048.90;1883196;75;28061;-45
2023/01/06 09:30:47;;;;;;;1.30;1.20;;;;;;;24.71;38.93;100060.95;1856741;75;28262;-45
2023/01/06 09:33:36;;;;;;;1.15;1.15;;;;;;;24.71;38.92;100054.08;1876585;74;28173;-45
2023/01/06 09:36:24;;;;;;;1.37;1.27;;;;;;;24.69;38.94;100053.48;1878853;75;28078;-46
2023/01/06 09:39:13;;;;;;;1.70;1.20;;;;;;;24.70;38.97;100060.66;1860526;75;28073;-44
2023/01/06 09:42:11;;;;;;;1.02;1.02;;;;;;;24.71;38.94;100057.38;1881259;75;28125;-43
2023/01/06 09:45:02;;;;;;;1.83;1.30;;;;;;;24.75;38.88;100058.58;1880124;74;28159;-43
2023/01/06 09:47:54;;;;;;;1.52;1.20;;;;;;;24.74;38.83;100061.86;1875851;74;28240;-43
2023/01/06 09:50:46;;;;;;;1.20;1.10;;;;;;;24.73;38.86;100064.33;1878170;75;28145;-44
2023/01/06 09:53:37;;;;;;;1.15;1.15;;;;;;;24.71;38.88;100052.70;1872981;75;28304;-43
2023/01/06 09:56:26;;;;;;;1.30;1.25;;;;;;;24.71;38.86;100049.14;1855126;75;28231;-45
2023/01/06 09:59:23;;;;;;;1.32;1.20;;;;;;;24.73;38.84;100041.50;1880428;74;28613;-45
2023/01/06 10:02:15;;;;;;;1.15;1.10;;;;;;;24.71;38.85;100047.20;1878390;75;28237;-47
2023/01/06 10:05:06;;;;;;;1.30;1.30;;;;;;;24.72;38.83;100043.93;1871442;76;28240;-44
2023/01/06 10:08:03;;;;;;;1.55;1.40;;;;;;;24.73;38.86;100045.09;1864832;74;28212;-45
2023/01/06 10:11:11;;;;;;;1.20;1.20;;;;;;;24.74;38.85;100052.24;1868049;76;28229;-47
2023/01/06 10:14:19;;;;;;;1.40;1.30;;;;;;;24.79;38.80;100049.34;1870437;76;28254;-43
2023/01/06 10:17:31;;;;;;;1.35;1.25;;;;;;;24.73;38.83;100050.59;1874493;76;28223;-43
2023/01/06 10:20:38;;;;;;;1.30;1.17;;;;;;;24.66;38.82;100035.27;1864912;76;28094;-44
2023/01/06 10:23:29;;;;;;;1.00;1.00;;;;;;;24.69;38.86;100045.23;1882112;74;28219;-45
2023/01/06 10:26:20;;;;;;;1.50;1.40;;;;;;;24.73;38.86;100045.09;1871681;76;28204;-45
2023/01/06 10:29:20;;;;;;;1.22;1.12;;;;;;;24.71;38.94;100047.20;1847058;76;28268;-47
2023/01/06 10:32:11;;;;;;;1.50;1.37;;;;;;;24.70;38.87;100044.17;1850960;76;28299;-45
2023/01/06 10:35:00;;;;;;;1.10;1.10;;;;;;;24.70;38.94;100044.17;1875199;76;28121;-44
2023/01/06 10:37:51;;;;;;;1.50;1.40;;;;;;;24.72;38.87;100047.52;1878189;74;28212;-44
2023/01/06 10:40:39;;;;;;;1.07;1.07;;;;;;;24.80;38.80;100041.42;1877803;76;28174;-43
2023/01/06 10:43:28;;;;;;;1.20;1.10;;;;;;;24.79;38.75;100037.83;1858191;75;28644;-43
2023/01/06 10:46:17;;;;;;;1.20;1.20;;;;;;;24.80;38.71;100036.77;1877894;76;30159;-44
2023/01/06 10:49:11;;;;;;;1.40;1.30;;;;;;;24.79;38.71;100030.95;1877358;74;28234;-44
2023/01/06 10:52:02;;;;;;;1.10;1.10;;;;;;;24.78;38.74;100028.45;1877647;76;28523;-43
2023/01/06 10:54:54;;;;;;;1.42;1.32;;;;;;;24.77;38.75;100022.12;1881499;74;28579;-45
2023/01/06 10:57:42;;;;;;;1.10;1.10;;;;;;;24.79;38.70;100013.63;1874413;76;28181;-46
2023/01/06 11:00:31;;;;;;;1.03;1.03;;;;;;;24.78;38.73;100011.44;1855774;76;28085;-46
2023/01/06 11:03:21;;;;;;;1.15;1.15;;;;;;;24.80;38.70;100013.95;1887152;74;28029;-43
2023/01/06 11:06:27;;;;;;;1.30;1.20;;;;;;;24.80;38.70;100013.95;1868508;76;28197;-45
2023/01/06 11:09:30;;;;;;;1.30;1.20;;;;;;;24.79;38.73;100010.88;1871828;76;28097;-44
2023/01/06 11:12:30;;;;;;;1.00;1.00;;;;;;;24.77;38.72;100004.79;1872246;76;28122;-43
2023/01/06 11:15:25;;;;;;;1.37;1.25;;;;;;;24.78;38.70;99995.48;1872591;76;28231;-43
2023/01/06 11:18:22;;;;;;;1.17;1.17;;;;;;;24.78;38.72;99995.48;1873829;76;28112;-43
2023/01/06 11:21:15;;;;;;;1.30;1.20;;;;;;;24.78;38.72;99989.99;1870637;76;28186;-43
2023/01/06 11:24:15;;;;;;;1.27;1.27;;;;;;;24.78;38.69;99980.38;1871031;76;28109;-43
2023/01/06 11:27:16;;;;;;;1.30;1.20;;;;;;;24.77;38.74;99975.41;1852862;76;28173;-45
2023/01/06 11:30:10;;;;;;;1.15;1.15;;;;;;;24.77;38.74;99974.03;1850144;76;28156;-44
2023/01/06 11:32:58;;;;;;;1.12;1.12;;;;;;;24.74;38.73;99973.94;1845919;76;28131;-44
2023/01/06 11:35:48;;;;;;;1.20;1.20;;;;;;;24.77;38.73;99973.19;1872703;76;28028;-43
2023/01/06 11:38:48;;;;;;;1.22;1.22;;;;;;;24.79;38.70;99961.42;1872324;76;28059;-44
2023/01/06 11:41:39;;;;;;;1.10;1.10;;;;;;;24.79;38.67;99964.17;1875066;76;28073;-46
2023/01/06 11:44:36;;;;;;;1.37;1.20;;;;;;;24.81;38.64;99951.06;1870641;76;28081;-43
2023/01/06 11:47:27;;;;;;;1.10;1.10;;;;;;;24.80;38.65;99949.38;1870553;76;28096;-47
2023/01/06 11:50:19;;;;;;;1.20;1.20;;;;;;;24.80;38.61;99939.75;1870723;76;28219;-46
2023/01/06 11:53:20;;;;;;;1.45;1.35;;;;;;;24.81;38.64;99940.87;1870445;76;28208;-44
2023/01/06 11:56:19;;;;;;;1.00;1.00;;;;;;;24.82;38.60;99935.70;1851877;76;28145;-43
2023/01/06 11:59:13;;;;;;;1.20;1.20;;;;;;;24.82;38.58;99923.86;1836713;76;28208;-44
2023/01/06 12:02:02;;;;;;;1.20;1.20;;;;;;;24.81;38.61;99918.09;1865943;76;28161;-45
2023/01/06 12:04:52;;;;;;;1.00;1.00;;;;;;;24.78;38.62;99912.53;1871065;76;28122;-44
2023/01/06 12:07:44;;;;;;;1.07;1.07;;;;;;;24.80;38.63;99912.28;1870342;74;28307;-44
2023/01/06 12:10:35;;;;;;;1.17;1.17;;;;;;;24.80;38.58;99909.53;1860728;76;28311;-44
2023/01/06 12:13:24;;;;;;;1.05;1.00;;;;;;;24.82;38.55;99899.97;1868659;76;28040;-45
2023/01/06 12:16:24;;;;;;;1.15;1.15;;;;;;;24.81;38.54;99901.59;1870856;76;28171;-43
2023/01/06 12:19:18;;;;;;;1.03;1.03;;;;;;;24.85;38.52;99889.89;1871313;76;28165;-43
2023/01/06 12:22:12;;;;;;;1.40;1.30;;;;;;;24.83;38.53;99890.67;1851840;76;28147;-43
2023/01/06 12:25:02;;;;;;;1.10;1.10;;;;;;;24.83;38.52;99887.08;1870617;76;28031;-45
2023/01/06 12:28:03;;;;;;;1.10;1.10;;;;;;;24.83;38.51;99884.33;1870703;76;28200;-46
2023/01/06 12:31:17;;;;;;;1.50;1.10;;;;;;;24.82;38.55;99880.73;1870373;76;28153;-48
2023/01/06 12:34:15;;;;;;;1.10;1.10;;;;;;;24.82;38.54;99877.15;1865097;76;28107;-43
2023/01/06 12:37:26;;;;;;;1.30;1.20;;;;;;;24.78;38.56;99876.81;1864509;76;28138;-46
2023/01/06 12:40:27;;;;;;;1.07;1.05;;;;;;;24.79;38.59;99871.59;1837195;77;28227;-43
2023/01/06 12:43:19;;;;;;;2.00;1.20;;;;;;;24.76;38.54;99872.59;1852812;76;33070;-43
2023/01/06 12:46:10;;;;;;;1.20;1.20;;;;;;;24.78;38.59;99871.84;1868727;76;28186;-44
2023/01/06 12:49:05;;;;;;;1.05;1.05;;;;;;;24.78;38.57;99867.72;1872746;76;28141;-45
2023/01/06 12:51:56;;;;;;;1.05;1.05;;;;;;;24.78;38.58;99859.48;1872951;76;28109;-45
2023/01/06 12:54:47;;;;;;;0.90;0.90;;;;;;;24.81;38.55;99867.25;1871877;76;28112;-44
2023/01/06 12:57:47;;;;;;;1.27;1.27;;;;;;;24.81;38.50;99865.88;1837306;77;28319;-44
2023/01/06 13:00:53;;;;;;;1.15;1.15;;;;;;;24.81;38.58;99857.64;1867078;76;28210;-45
2023/01/06 13:04:07;;;;;;;1.32;1.22;;;;;;;24.80;38.48;99855.95;1865927;76;28237;-46
2023/01/06 13:07:07;;;;;;;1.10;1.00;;;;;;;24.76;38.56;99858.86;1866726;76;28289;-45
2023/01/06 13:10:24;;;;;;;0.98;0.98;;;;;;;24.76;38.58;99856.11;1869511;76;28168;-45
2023/01/06 13:13:21;;;;;;;1.00;1.00;;;;;;;24.79;38.60;99858.39;1870839;76;28138;-45
2023/01/06 13:16:15;;;;;;;1.35;1.20;;;;;;;24.76;38.66;99851.98;1870822;76;28137;-43
2023/01/06 13:19:37;;;;;;;2.00;1.10;;;;;;;24.80;38.58;99851.83;1851683;76;28248;-44
2023/01/06 13:22:54;;;;;;;1.10;1.10;;;;;;;24.79;38.58;99848.23;1837507;76;28299;-43
2023/01/06 13:26:13;;;;;;;1.20;1.10;;;;;;;24.78;38.58;99847.11;1856298;76;28095;-44
2023/01/06 13:29:11;;;;;;;1.03;1.03;;;;;;;24.79;38.60;99839.16;1857670;76;28488;-45
2023/01/06 13:32:11;;;;;;;0.90;0.90;;;;;;;24.77;38.59;99846.27;1854027;76;28593;-44
2023/01/06 13:35:19;;;;;;;1.12;1.02;;;;;;;24.78;38.55;99841.63;1850855;76;28188;-44
2023/01/06 13:38:30;;;;;;;1.00;1.00;;;;;;;24.80;38.52;99836.72;1849457;76;28102;-42